Airfield :
LOGIN :

Register | Disclaimer

   EN    FR    IT 

 










Legend :    VFR   Marginal VFR   IFR   Intensive IFR   Very Intensive IFR
Visi :
Ceiling :
>= 8 km
>= 3000ft
5 to 8 km
1000 to 3000 ft
1500m to 5 km
500 to 1000 ft
800 to 1500m
200 to 500 ft
< 800m
< 200 ft
Symbols :   Thunderstorms  Fog  Heavy snow  Heavy precipitations  Wind > 20 kt
SIGMETs :     Misc.  Thunderstorms  Icing  Turbulence  Mountain Waves  Volcanic Ashes






- Airport Elevation : 3 ft
- IATA code : LWR


EHLW - Leuuwarden Air Base

CURRENT METAR :
  • 271425Z AUTO 09005KT 020V140 9999 OVC008 08/06 Q1019 GRN

EXPIRED METARs :
  • 271409Z AUTO 08005KT 030V130 9999 OVC009 08/06 Q1019 GRN
  • 271401Z AUTO 08005KT 030V120 9999 OVC010 08/06 Q1019 GRN
  • 271349Z AUTO 08005KT 040V130 9999 OVC011 08/06 Q1019 GRN BECMG SCT008 BKN010
  • 271337Z AUTO 08005KT 040V150 9999 -RA BKN012 BKN028 OVC034 08/06 Q1019 GRN BECMG SCT010 BKN015
  • 271325Z AUTO 08005KT 010V120 9999 DZ SCT014 OVC016 08/06 Q1020 GRN BECMG SCT010 BKN015
  • 271255Z AUTO 08004KT 360V120 9999 OVC017 08/06 Q1020 WHT BECMG SCT010 BKN015
  • 271229Z AUTO 07004KT 360V170 9000 BR FEW018 BKN024 BKN028 08/07 Q1020 WHT TEMPO 4000 BR
  • 271218Z AUTO 08004KT 040V140 9000 BR FEW009 BKN028 OVC033 07/06 Q1020 BLU TEMPO 4000 BR
  • 271155Z AUTO 06003KT 040V140 6000 BR FEW009 OVC032 07/07 Q1020 WHT TEMPO 4000 BR

TAF TAF EHLW
Valid from the 27 at 14:00 until the 28 at 02:00 UTC


271330Z 2714/2802 08005KT 9000 SCT010 BKN012
TEMPO 2714/2720 4000 -DZRA SCT005 BKN008
PROB30
TEMPO 2714/2718 2000 DZRA BR SCT002 BKN004
BECMG 2718/2721 4500 BR NSC
BECMG 2722/2724 2000 BR MIFG
PROB40 2723/2802 0800 FG BKN002



MET'MAP, your aeronautical weather chart ! - Copyright ORBIFLY December 2007 - Disclaimer

ORBIFLY MET'MAP TEAM :

Programming & Development : Alexandra Zaïnal
Concept & original design : Baudouin d'Aumeries
Assistance for programming : Marc-Olivier Méhu
Technical & hardware support : Manuel Goepfert

Contact : metmap@orbifly.com




SOURCES & CREDITS :

   NOAA